Terminal Aerodrome Forecast
Issued by NWS Pittsburgh, PA

Home | Current Version | Previous Version | Text Only | Print | Product List | Glossary On
Versions: 1 2 3 4 5 6 7 8 9 10 11 12 13 14 15 16 17 18 19 20 21 22 23 24 25 26 27 28 29 30 31 32 33
000
FTUS41 KPBZ 042333
TAFPIT
TAF
KPIT 042333Z 0500/0606 19005KT P6SM VCSH BKN060
     FM050300 21003KT 5SM -SHRA OVC025
     FM050900 VRB03KT 3SM -SHRA BR OVC015
     FM051300 02003KT 6SM -SHRA OVC025
     FM051600 35005KT P6SM VCSH OVC035=

USA.gov is the U.S. government's official web portal to all federal, state and local government web resources and services.